sensor_id;sensor_type;location;lat;lon;timestamp;P1;durP1;ratioP1;P2;durP2;ratioP2
46765;SDS011;32527;51.986;5.842;2022-11-25T00:01:26;23.30;;;4.03;;
46765;SDS011;32527;51.986;5.842;2022-11-25T00:03:53;9.65;;;3.45;;
46765;SDS011;32527;51.986;5.842;2022-11-25T00:06:21;14.43;;;3.53;;
46765;SDS011;32527;51.986;5.842;2022-11-25T00:08:55;17.48;;;4.32;;
46765;SDS011;32527;51.986;5.842;2022-11-25T00:11:33;16.75;;;3.45;;
46765;SDS011;32527;51.986;5.842;2022-11-25T00:14:00;13.70;;;3.58;;
46765;SDS011;32527;51.986;5.842;2022-11-25T00:16:26;14.80;;;3.53;;
46765;SDS011;32527;51.986;5.842;2022-11-25T00:18:53;19.88;;;4.07;;
46765;SDS011;32527;51.986;5.842;2022-11-25T00:21:20;14.80;;;3.70;;
46765;SDS011;32527;51.986;5.842;2022-11-25T00:23:55;13.90;;;4.32;;
46765;SDS011;32527;51.986;5.842;2022-11-25T00:26:23;16.73;;;4.30;;
46765;SDS011;32527;51.986;5.842;2022-11-25T00:28:50;16.50;;;4.55;;
46765;SDS011;32527;51.986;5.842;2022-11-25T00:31:17;15.20;;;4.32;;
46765;SDS011;32527;51.986;5.842;2022-11-25T00:33:45;16.77;;;3.42;;
46765;SDS011;32527;51.986;5.842;2022-11-25T00:36:21;15.93;;;4.28;;
46765;SDS011;32527;51.986;5.842;2022-11-25T00:38:56;14.82;;;4.03;;
46765;SDS011;32527;51.986;5.842;2022-11-25T00:41:23;14.55;;;3.55;;
46765;SDS011;32527;51.986;5.842;2022-11-25T00:44:09;13.15;;;3.38;;
46765;SDS011;32527;51.986;5.842;2022-11-25T00:46:55;12.10;;;3.90;;
46765;SDS011;32527;51.986;5.842;2022-11-25T00:49:21;11.10;;;4.20;;
46765;SDS011;32527;51.986;5.842;2022-11-25T00:51:47;22.55;;;4.10;;
46765;SDS011;32527;51.986;5.842;2022-11-25T00:54:12;17.20;;;4.13;;
46765;SDS011;32527;51.986;5.842;2022-11-25T00:56:38;16.08;;;4.40;;
46765;SDS011;32527;51.986;5.842;2022-11-25T00:59:05;21.02;;;4.63;;
46765;SDS011;32527;51.986;5.842;2022-11-25T01:01:31;22.48;;;3.97;;
46765;SDS011;32527;51.986;5.842;2022-11-25T01:03:57;22.17;;;4.20;;
46765;SDS011;32527;51.986;5.842;2022-11-25T01:06:23;12.88;;;4.03;;
46765;SDS011;32527;51.986;5.842;2022-11-25T01:08:48;26.27;;;4.80;;
46765;SDS011;32527;51.986;5.842;2022-11-25T01:11:17;9.05;;;3.63;;
46765;SDS011;32527;51.986;5.842;2022-11-25T01:13:44;22.00;;;4.25;;
46765;SDS011;32527;51.986;5.842;2022-11-25T01:16:12;14.63;;;4.28;;
46765;SDS011;32527;51.986;5.842;2022-11-25T01:18:39;15.40;;;4.05;;
46765;SDS011;32527;51.986;5.842;2022-11-25T01:23:44;24.30;;;5.28;;
46765;SDS011;32527;51.986;5.842;2022-11-25T01:26:12;18.92;;;4.53;;
46765;SDS011;32527;51.986;5.842;2022-11-25T01:28:39;17.58;;;3.97;;
46765;SDS011;32527;51.986;5.842;2022-11-25T01:31:06;20.00;;;4.20;;
46765;SDS011;32527;51.986;5.842;2022-11-25T01:33:44;21.13;;;4.45;;
46765;SDS011;32527;51.986;5.842;2022-11-25T01:36:12;19.25;;;4.80;;
46765;SDS011;32527;51.986;5.842;2022-11-25T01:38:41;18.90;;;4.05;;
46765;SDS011;32527;51.986;5.842;2022-11-25T01:41:08;17.08;;;4.22;;
46765;SDS011;32527;51.986;5.842;2022-11-25T01:43:35;12.80;;;4.55;;
46765;SDS011;32527;51.986;5.842;2022-11-25T01:46:06;22.02;;;4.18;;
46765;SDS011;32527;51.986;5.842;2022-11-25T01:48:41;19.33;;;3.72;;
46765;SDS011;32527;51.986;5.842;2022-11-25T01:51:17;21.13;;;4.75;;
46765;SDS011;32527;51.986;5.842;2022-11-25T01:53:50;22.45;;;4.38;;
46765;SDS011;32527;51.986;5.842;2022-11-25T01:56:16;14.68;;;4.40;;
46765;SDS011;32527;51.986;5.842;2022-11-25T01:58:43;19.67;;;4.32;;
46765;SDS011;32527;51.986;5.842;2022-11-25T02:01:12;13.25;;;3.70;;
46765;SDS011;32527;51.986;5.842;2022-11-25T02:03:40;22.30;;;4.75;;
46765;SDS011;32527;51.986;5.842;2022-11-25T02:06:13;20.77;;;4.95;;
46765;SDS011;32527;51.986;5.842;2022-11-25T02:08:45;25.50;;;4.68;;
46765;SDS011;32527;51.986;5.842;2022-11-25T02:11:16;14.35;;;4.05;;
46765;SDS011;32527;51.986;5.842;2022-11-25T02:13:43;12.88;;;3.83;;
46765;SDS011;32527;51.986;5.842;2022-11-25T02:16:11;20.67;;;4.30;;
46765;SDS011;32527;51.986;5.842;2022-11-25T02:18:36;15.77;;;4.22;;
46765;SDS011;32527;51.986;5.842;2022-11-25T02:21:03;28.20;;;5.50;;
46765;SDS011;32527;51.986;5.842;2022-11-25T02:23:51;24.73;;;4.90;;
46765;SDS011;32527;51.986;5.842;2022-11-25T02:26:52;20.70;;;4.05;;
46765;SDS011;32527;51.986;5.842;2022-11-25T02:29:19;19.85;;;3.90;;
46765;SDS011;32527;51.986;5.842;2022-11-25T02:31:47;15.88;;;4.40;;
46765;SDS011;32527;51.986;5.842;2022-11-25T02:34:14;23.67;;;4.03;;
46765;SDS011;32527;51.986;5.842;2022-11-25T02:36:40;21.30;;;4.18;;
46765;SDS011;32527;51.986;5.842;2022-11-25T02:39:05;17.90;;;3.78;;
46765;SDS011;32527;51.986;5.842;2022-11-25T02:41:38;17.27;;;4.45;;
46765;SDS011;32527;51.986;5.842;2022-11-25T02:44:08;15.77;;;4.25;;
46765;SDS011;32527;51.986;5.842;2022-11-25T02:46:34;18.73;;;4.28;;
46765;SDS011;32527;51.986;5.842;2022-11-25T02:49:01;22.33;;;4.10;;
46765;SDS011;32527;51.986;5.842;2022-11-25T02:51:28;18.65;;;3.78;;
46765;SDS011;32527;51.986;5.842;2022-11-25T02:53:56;24.40;;;4.00;;
46765;SDS011;32527;51.986;5.842;2022-11-25T02:56:26;20.30;;;4.95;;
46765;SDS011;32527;51.986;5.842;2022-11-25T02:58:54;25.23;;;5.30;;
46765;SDS011;32527;51.986;5.842;2022-11-25T03:01:22;16.08;;;4.68;;
46765;SDS011;32527;51.986;5.842;2022-11-25T03:03:48;22.05;;;4.32;;
46765;SDS011;32527;51.986;5.842;2022-11-25T03:06:14;19.38;;;4.13;;
46765;SDS011;32527;51.986;5.842;2022-11-25T03:08:40;17.50;;;4.85;;
46765;SDS011;32527;51.986;5.842;2022-11-25T03:11:09;19.05;;;3.95;;
46765;SDS011;32527;51.986;5.842;2022-11-25T03:13:36;17.40;;;5.18;;
46765;SDS011;32527;51.986;5.842;2022-11-25T03:16:02;17.67;;;4.03;;
46765;SDS011;32527;51.986;5.842;2022-11-25T03:18:28;18.77;;;4.05;;
46765;SDS011;32527;51.986;5.842;2022-11-25T03:20:54;19.60;;;5.57;;
46765;SDS011;32527;51.986;5.842;2022-11-25T03:23:22;15.70;;;3.70;;
46765;SDS011;32527;51.986;5.842;2022-11-25T03:25:51;30.35;;;8.13;;
46765;SDS011;32527;51.986;5.842;2022-11-25T03:28:18;19.70;;;4.35;;
46765;SDS011;32527;51.986;5.842;2022-11-25T09:29:57;16.35;;;5.60;;
46765;SDS011;32527;51.986;5.842;2022-11-25T09:32:23;13.20;;;5.53;;
46765;SDS011;32527;51.986;5.842;2022-11-25T09:34:49;21.58;;;7.38;;
46765;SDS011;32527;51.986;5.842;2022-11-25T09:37:15;19.23;;;6.13;;
46765;SDS011;32527;51.986;5.842;2022-11-25T09:39:41;13.13;;;6.28;;
46765;SDS011;32527;51.986;5.842;2022-11-25T10:11:02;20.67;;;6.47;;
46765;SDS011;32527;51.986;5.842;2022-11-25T10:16:16;15.33;;;5.90;;
46765;SDS011;32527;51.986;5.842;2022-11-25T10:19:14;17.75;;;6.28;;
46765;SDS011;32527;51.986;5.842;2022-11-25T10:22:09;18.33;;;5.72;;
46765;SDS011;32527;51.986;5.842;2022-11-25T10:24:50;17.90;;;6.55;;
46765;SDS011;32527;51.986;5.842;2022-11-25T10:27:40;13.85;;;6.35;;
46765;SDS011;32527;51.986;5.842;2022-11-25T10:30:12;21.48;;;6.30;;
46765;SDS011;32527;51.986;5.842;2022-11-25T10:35:56;20.08;;;6.43;;
46765;SDS011;32527;51.986;5.842;2022-11-25T10:41:47;18.38;;;6.35;;
46765;SDS011;32527;51.986;5.842;2022-11-25T10:44:22;13.90;;;6.70;;
46765;SDS011;32527;51.986;5.842;2022-11-25T10:49:29;22.45;;;6.13;;
46765;SDS011;32527;51.986;5.842;2022-11-25T10:52:10;19.45;;;6.50;;
46765;SDS011;32527;51.986;5.842;2022-11-25T10:54:39;16.45;;;5.95;;
46765;SDS011;32527;51.986;5.842;2022-11-25T10:57:17;17.55;;;5.85;;
46765;SDS011;32527;51.986;5.842;2022-11-25T10:59:55;19.77;;;5.15;;
46765;SDS011;32527;51.986;5.842;2022-11-25T11:02:23;17.67;;;5.78;;
46765;SDS011;32527;51.986;5.842;2022-11-25T11:07:26;21.45;;;5.68;;
46765;SDS011;32527;51.986;5.842;2022-11-25T11:15:43;16.67;;;5.10;;
46765;SDS011;32527;51.986;5.842;2022-11-25T11:20:49;17.90;;;5.57;;
46765;SDS011;32527;51.986;5.842;2022-11-25T11:23:22;14.88;;;5.00;;
46765;SDS011;32527;51.986;5.842;2022-11-25T11:28:29;14.57;;;4.60;;
46765;SDS011;32527;51.986;5.842;2022-11-25T11:31:00;19.40;;;6.53;;
46765;SDS011;32527;51.986;5.842;2022-11-25T11:33:29;14.95;;;4.85;;
46765;SDS011;32527;51.986;5.842;2022-11-25T11:38:40;11.98;;;4.40;;
46765;SDS011;32527;51.986;5.842;2022-11-25T11:41:22;14.05;;;4.35;;
46765;SDS011;32527;51.986;5.842;2022-11-25T11:44:01;9.75;;;4.53;;
46765;SDS011;32527;51.986;5.842;2022-11-25T11:46:42;13.98;;;4.38;;
46765;SDS011;32527;51.986;5.842;2022-11-25T11:49:45;13.90;;;4.60;;
46765;SDS011;32527;51.986;5.842;2022-11-25T11:52:53;12.43;;;4.35;;
46765;SDS011;32527;51.986;5.842;2022-11-25T11:55:37;10.00;;;4.15;;
46765;SDS011;32527;51.986;5.842;2022-11-25T11:58:27;14.23;;;5.20;;
46765;SDS011;32527;51.986;5.842;2022-11-25T12:01:24;14.40;;;5.50;;
46765;SDS011;32527;51.986;5.842;2022-11-25T12:04:20;16.27;;;4.32;;
46765;SDS011;32527;51.986;5.842;2022-11-25T12:07:10;14.95;;;4.20;;
46765;SDS011;32527;51.986;5.842;2022-11-25T12:12:40;17.08;;;5.20;;
46765;SDS011;32527;51.986;5.842;2022-11-25T12:15:23;11.90;;;4.07;;
46765;SDS011;32527;51.986;5.842;2022-11-25T12:18:03;14.70;;;4.28;;
46765;SDS011;32527;51.986;5.842;2022-11-25T12:20:46;13.35;;;3.45;;
46765;SDS011;32527;51.986;5.842;2022-11-25T12:24:18;13.80;;;4.35;;
46765;SDS011;32527;51.986;5.842;2022-11-25T12:28:56;12.95;;;3.88;;
46765;SDS011;32527;51.986;5.842;2022-11-25T12:31:27;9.82;;;3.70;;
46765;SDS011;32527;51.986;5.842;2022-11-25T12:34:01;10.80;;;3.67;;
46765;SDS011;32527;51.986;5.842;2022-11-25T12:36:33;13.07;;;4.45;;
46765;SDS011;32527;51.986;5.842;2022-11-25T12:44:48;15.90;;;3.90;;
46765;SDS011;32527;51.986;5.842;2022-11-25T12:47:23;16.88;;;4.03;;
46765;SDS011;32527;51.986;5.842;2022-11-25T12:49:51;13.18;;;4.03;;
46765;SDS011;32527;51.986;5.842;2022-11-25T12:55:13;13.48;;;4.50;;
46765;SDS011;32527;51.986;5.842;2022-11-25T13:00:53;10.48;;;3.40;;
46765;SDS011;32527;51.986;5.842;2022-11-25T13:06:22;10.73;;;3.90;;
46765;SDS011;32527;51.986;5.842;2022-11-25T13:15:17;14.98;;;3.55;;
46765;SDS011;32527;51.986;5.842;2022-11-25T13:17:44;11.18;;;3.30;;
46765;SDS011;32527;51.986;5.842;2022-11-25T13:23:00;11.38;;;3.55;;
46765;SDS011;32527;51.986;5.842;2022-11-25T13:25:27;17.30;;;3.22;;
46765;SDS011;32527;51.986;5.842;2022-11-25T13:35:36;14.00;;;3.70;;
46765;SDS011;32527;51.986;5.842;2022-11-25T13:43:25;15.88;;;4.50;;
46765;SDS011;32527;51.986;5.842;2022-11-25T13:45:51;14.30;;;3.40;;
46765;SDS011;32527;51.986;5.842;2022-11-25T13:50:50;14.60;;;3.60;;
46765;SDS011;32527;51.986;5.842;2022-11-25T13:53:36;9.77;;;2.97;;
46765;SDS011;32527;51.986;5.842;2022-11-25T13:56:21;17.65;;;3.53;;
46765;SDS011;32527;51.986;5.842;2022-11-25T14:04:10;12.38;;;3.55;;
46765;SDS011;32527;51.986;5.842;2022-11-25T14:06:43;10.35;;;3.40;;
46765;SDS011;32527;51.986;5.842;2022-11-25T14:09:43;13.63;;;3.42;;
46765;SDS011;32527;51.986;5.842;2022-11-25T14:12:32;14.70;;;3.95;;
46765;SDS011;32527;51.986;5.842;2022-11-25T14:15:23;13.68;;;4.00;;
46765;SDS011;32527;51.986;5.842;2022-11-25T14:21:25;22.40;;;4.32;;
46765;SDS011;32527;51.986;5.842;2022-11-25T14:26:27;11.93;;;3.28;;
46765;SDS011;32527;51.986;5.842;2022-11-25T14:29:16;12.23;;;3.77;;
46765;SDS011;32527;51.986;5.842;2022-11-25T14:31:57;17.02;;;4.00;;
46765;SDS011;32527;51.986;5.842;2022-11-25T14:34:31;13.75;;;6.13;;
46765;SDS011;32527;51.986;5.842;2022-11-25T14:37:07;16.30;;;4.40;;
46765;SDS011;32527;51.986;5.842;2022-11-25T14:42:11;12.50;;;4.22;;
46765;SDS011;32527;51.986;5.842;2022-11-25T14:44:45;18.98;;;4.93;;
46765;SDS011;32527;51.986;5.842;2022-11-25T14:47:26;15.80;;;4.25;;
46765;SDS011;32527;51.986;5.842;2022-11-25T14:49:54;23.70;;;4.88;;
46765;SDS011;32527;51.986;5.842;2022-11-25T14:54:48;20.40;;;5.55;;
46765;SDS011;32527;51.986;5.842;2022-11-25T14:57:18;19.33;;;4.78;;
46765;SDS011;32527;51.986;5.842;2022-11-25T14:59:53;21.33;;;4.63;;
46765;SDS011;32527;51.986;5.842;2022-11-25T15:07:32;10.75;;;4.18;;
46765;SDS011;32527;51.986;5.842;2022-11-25T15:09:58;23.10;;;5.03;;
46765;SDS011;32527;51.986;5.842;2022-11-25T15:12:29;16.63;;;5.18;;
46765;SDS011;32527;51.986;5.842;2022-11-25T15:14:56;17.65;;;4.95;;
46765;SDS011;32527;51.986;5.842;2022-11-25T15:17:32;21.80;;;6.35;;
46765;SDS011;32527;51.986;5.842;2022-11-25T15:20:03;23.05;;;5.35;;
46765;SDS011;32527;51.986;5.842;2022-11-25T15:22:36;13.40;;;4.78;;
46765;SDS011;32527;51.986;5.842;2022-11-25T15:25:09;16.35;;;5.03;;
46765;SDS011;32527;51.986;5.842;2022-11-25T15:27:45;22.13;;;5.22;;
46765;SDS011;32527;51.986;5.842;2022-11-25T15:30:17;13.88;;;5.57;;
46765;SDS011;32527;51.986;5.842;2022-11-25T15:32:53;20.80;;;5.63;;
46765;SDS011;32527;51.986;5.842;2022-11-25T15:35:21;21.35;;;5.15;;
46765;SDS011;32527;51.986;5.842;2022-11-25T15:37:48;20.60;;;6.00;;
46765;SDS011;32527;51.986;5.842;2022-11-25T15:40:33;23.85;;;6.05;;
46765;SDS011;32527;51.986;5.842;2022-11-25T15:46:06;20.13;;;5.03;;
46765;SDS011;32527;51.986;5.842;2022-11-25T15:48:39;27.30;;;6.22;;
46765;SDS011;32527;51.986;5.842;2022-11-25T15:51:19;23.80;;;6.75;;
46765;SDS011;32527;51.986;5.842;2022-11-25T15:56:51;27.08;;;5.72;;
46765;SDS011;32527;51.986;5.842;2022-11-25T16:10:27;32.05;;;5.07;;
46765;SDS011;32527;51.986;5.842;2022-11-25T16:18:24;17.63;;;5.55;;
46765;SDS011;32527;51.986;5.842;2022-11-25T16:20:57;23.25;;;5.97;;
46765;SDS011;32527;51.986;5.842;2022-11-25T16:23:25;18.00;;;5.68;;
46765;SDS011;32527;51.986;5.842;2022-11-25T16:28:22;26.75;;;7.53;;
46765;SDS011;32527;51.986;5.842;2022-11-25T16:30:49;22.40;;;6.82;;
46765;SDS011;32527;51.986;5.842;2022-11-25T16:33:15;30.38;;;10.02;;
46765;SDS011;32527;51.986;5.842;2022-11-25T16:35:41;37.38;;;8.75;;
46765;SDS011;32527;51.986;5.842;2022-11-25T16:38:08;25.27;;;6.78;;
46765;SDS011;32527;51.986;5.842;2022-11-25T16:40:35;38.58;;;13.20;;
46765;SDS011;32527;51.986;5.842;2022-11-25T16:43:02;19.33;;;7.35;;
46765;SDS011;32527;51.986;5.842;2022-11-25T16:45:30;30.58;;;8.25;;
46765;SDS011;32527;51.986;5.842;2022-11-25T16:47:56;21.98;;;6.80;;
46765;SDS011;32527;51.986;5.842;2022-11-25T16:50:22;25.13;;;6.78;;
46765;SDS011;32527;51.986;5.842;2022-11-25T16:52:48;23.52;;;6.43;;
46765;SDS011;32527;51.986;5.842;2022-11-25T16:55:14;30.00;;;6.93;;
46765;SDS011;32527;51.986;5.842;2022-11-25T16:57:41;24.75;;;7.13;;
46765;SDS011;32527;51.986;5.842;2022-11-25T17:00:11;24.60;;;6.22;;
46765;SDS011;32527;51.986;5.842;2022-11-25T17:02:40;22.27;;;6.65;;
46765;SDS011;32527;51.986;5.842;2022-11-25T17:05:14;28.63;;;6.70;;
46765;SDS011;32527;51.986;5.842;2022-11-25T17:07:46;22.38;;;6.97;;
46765;SDS011;32527;51.986;5.842;2022-11-25T17:10:11;26.60;;;7.85;;
46765;SDS011;32527;51.986;5.842;2022-11-25T17:12:38;24.13;;;7.85;;
46765;SDS011;32527;51.986;5.842;2022-11-25T17:15:06;23.40;;;7.78;;
46765;SDS011;32527;51.986;5.842;2022-11-25T17:17:40;49.08;;;9.63;;
46765;SDS011;32527;51.986;5.842;2022-11-25T17:20:09;28.00;;;8.60;;
46765;SDS011;32527;51.986;5.842;2022-11-25T17:22:39;24.08;;;7.93;;
46765;SDS011;32527;51.986;5.842;2022-11-25T17:25:05;25.58;;;8.38;;
46765;SDS011;32527;51.986;5.842;2022-11-25T17:27:31;24.65;;;8.00;;
46765;SDS011;32527;51.986;5.842;2022-11-25T17:29:57;28.15;;;8.30;;
46765;SDS011;32527;51.986;5.842;2022-11-25T17:32:25;27.50;;;8.95;;
46765;SDS011;32527;51.986;5.842;2022-11-25T17:34:51;25.27;;;8.82;;
46765;SDS011;32527;51.986;5.842;2022-11-25T17:37:18;29.52;;;8.82;;
46765;SDS011;32527;51.986;5.842;2022-11-25T17:39:47;32.33;;;9.05;;
46765;SDS011;32527;51.986;5.842;2022-11-25T17:42:13;28.08;;;9.80;;
46765;SDS011;32527;51.986;5.842;2022-11-25T17:44:40;30.50;;;9.40;;
46765;SDS011;32527;51.986;5.842;2022-11-25T17:47:12;25.77;;;8.68;;
46765;SDS011;32527;51.986;5.842;2022-11-25T17:49:39;27.17;;;7.60;;
46765;SDS011;32527;51.986;5.842;2022-11-25T17:52:05;25.08;;;8.23;;
46765;SDS011;32527;51.986;5.842;2022-11-25T17:54:31;32.10;;;8.00;;
46765;SDS011;32527;51.986;5.842;2022-11-25T17:56:57;32.42;;;8.30;;
46765;SDS011;32527;51.986;5.842;2022-11-25T17:59:24;24.67;;;8.00;;
46765;SDS011;32527;51.986;5.842;2022-11-25T18:01:52;36.28;;;9.55;;
46765;SDS011;32527;51.986;5.842;2022-11-25T18:04:23;29.27;;;8.18;;
46765;SDS011;32527;51.986;5.842;2022-11-25T18:06:50;23.98;;;7.88;;
46765;SDS011;32527;51.986;5.842;2022-11-25T18:09:16;19.25;;;8.27;;
46765;SDS011;32527;51.986;5.842;2022-11-25T18:11:44;30.52;;;7.53;;
46765;SDS011;32527;51.986;5.842;2022-11-25T18:14:15;32.13;;;8.52;;
46765;SDS011;32527;51.986;5.842;2022-11-25T18:16:47;30.55;;;7.85;;
46765;SDS011;32527;51.986;5.842;2022-11-25T18:19:13;31.75;;;7.38;;
46765;SDS011;32527;51.986;5.842;2022-11-25T18:21:39;38.90;;;8.45;;
46765;SDS011;32527;51.986;5.842;2022-11-25T18:24:05;37.15;;;9.40;;
46765;SDS011;32527;51.986;5.842;2022-11-25T18:26:32;32.30;;;9.23;;
46765;SDS011;32527;51.986;5.842;2022-11-25T18:29:11;23.45;;;8.77;;
46765;SDS011;32527;51.986;5.842;2022-11-25T18:31:43;27.08;;;9.02;;
46765;SDS011;32527;51.986;5.842;2022-11-25T18:34:16;31.15;;;9.75;;
46765;SDS011;32527;51.986;5.842;2022-11-25T18:36:42;35.35;;;9.48;;
46765;SDS011;32527;51.986;5.842;2022-11-25T18:39:08;35.63;;;8.63;;
46765;SDS011;32527;51.986;5.842;2022-11-25T18:41:34;38.22;;;9.43;;
46765;SDS011;32527;51.986;5.842;2022-11-25T18:44:01;37.35;;;9.45;;
46765;SDS011;32527;51.986;5.842;2022-11-25T18:46:29;31.67;;;11.35;;
46765;SDS011;32527;51.986;5.842;2022-11-25T18:49:07;32.03;;;9.90;;
46765;SDS011;32527;51.986;5.842;2022-11-25T18:51:35;37.58;;;10.73;;
46765;SDS011;32527;51.986;5.842;2022-11-25T18:54:01;37.83;;;10.90;;
46765;SDS011;32527;51.986;5.842;2022-11-25T18:56:27;30.58;;;9.85;;
46765;SDS011;32527;51.986;5.842;2022-11-25T18:58:53;45.88;;;11.55;;
46765;SDS011;32527;51.986;5.842;2022-11-25T19:01:21;35.05;;;10.38;;
46765;SDS011;32527;51.986;5.842;2022-11-25T19:03:47;35.75;;;9.32;;
46765;SDS011;32527;51.986;5.842;2022-11-25T19:06:15;42.65;;;10.38;;
46765;SDS011;32527;51.986;5.842;2022-11-25T19:08:41;33.55;;;8.98;;
46765;SDS011;32527;51.986;5.842;2022-11-25T19:11:18;26.85;;;10.93;;
46765;SDS011;32527;51.986;5.842;2022-11-25T19:13:58;33.35;;;9.15;;
46765;SDS011;32527;51.986;5.842;2022-11-25T19:16:30;25.08;;;9.15;;
46765;SDS011;32527;51.986;5.842;2022-11-25T19:18:56;33.50;;;9.45;;
46765;SDS011;32527;51.986;5.842;2022-11-25T19:21:22;26.95;;;9.38;;
46765;SDS011;32527;51.986;5.842;2022-11-25T19:23:48;27.73;;;9.43;;
46765;SDS011;32527;51.986;5.842;2022-11-25T19:26:27;25.60;;;8.70;;
46765;SDS011;32527;51.986;5.842;2022-11-25T19:28:59;24.20;;;8.95;;
46765;SDS011;32527;51.986;5.842;2022-11-25T19:31:28;34.47;;;9.18;;
46765;SDS011;32527;51.986;5.842;2022-11-25T19:33:56;30.92;;;9.27;;
46765;SDS011;32527;51.986;5.842;2022-11-25T19:36:23;34.92;;;10.80;;
46765;SDS011;32527;51.986;5.842;2022-11-25T19:38:51;22.85;;;7.68;;
46765;SDS011;32527;51.986;5.842;2022-11-25T19:41:17;28.10;;;8.60;;
46765;SDS011;32527;51.986;5.842;2022-11-25T19:43:43;20.52;;;8.75;;
46765;SDS011;32527;51.986;5.842;2022-11-25T19:46:28;27.80;;;9.73;;
46765;SDS011;32527;51.986;5.842;2022-11-25T19:48:56;26.67;;;8.98;;
46765;SDS011;32527;51.986;5.842;2022-11-25T19:51:24;24.10;;;8.10;;
46765;SDS011;32527;51.986;5.842;2022-11-25T19:53:52;25.90;;;9.20;;
46765;SDS011;32527;51.986;5.842;2022-11-25T19:56:18;36.65;;;8.93;;
46765;SDS011;32527;51.986;5.842;2022-11-25T19:58:54;26.25;;;7.97;;
46765;SDS011;32527;51.986;5.842;2022-11-25T20:01:21;32.33;;;8.30;;
46765;SDS011;32527;51.986;5.842;2022-11-25T20:03:54;29.27;;;10.38;;
46765;SDS011;32527;51.986;5.842;2022-11-25T20:06:20;34.05;;;9.45;;
46765;SDS011;32527;51.986;5.842;2022-11-25T20:08:47;35.15;;;9.75;;
46765;SDS011;32527;51.986;5.842;2022-11-25T20:11:13;30.10;;;8.60;;
46765;SDS011;32527;51.986;5.842;2022-11-25T20:13:40;32.17;;;9.35;;
46765;SDS011;32527;51.986;5.842;2022-11-25T20:16:17;25.42;;;9.10;;
46765;SDS011;32527;51.986;5.842;2022-11-25T20:18:48;30.65;;;9.25;;
46765;SDS011;32527;51.986;5.842;2022-11-25T20:21:17;31.83;;;10.60;;
46765;SDS011;32527;51.986;5.842;2022-11-25T20:23:50;33.53;;;9.93;;
46765;SDS011;32527;51.986;5.842;2022-11-25T20:26:26;30.45;;;11.13;;
46765;SDS011;32527;51.986;5.842;2022-11-25T20:28:58;32.83;;;10.93;;
46765;SDS011;32527;51.986;5.842;2022-11-25T20:31:24;33.42;;;13.23;;
46765;SDS011;32527;51.986;5.842;2022-11-25T20:33:52;36.08;;;11.55;;
46765;SDS011;32527;51.986;5.842;2022-11-25T20:36:18;34.40;;;13.15;;
46765;SDS011;32527;51.986;5.842;2022-11-25T20:38:52;37.05;;;12.52;;
46765;SDS011;32527;51.986;5.842;2022-11-25T20:41:20;26.27;;;12.63;;
46765;SDS011;32527;51.986;5.842;2022-11-25T20:43:47;42.20;;;13.02;;
46765;SDS011;32527;51.986;5.842;2022-11-25T20:46:21;40.08;;;13.75;;
46765;SDS011;32527;51.986;5.842;2022-11-25T20:48:52;36.63;;;14.23;;
46765;SDS011;32527;51.986;5.842;2022-11-25T20:51:20;28.33;;;14.05;;
46765;SDS011;32527;51.986;5.842;2022-11-25T20:53:51;39.60;;;16.17;;
46765;SDS011;32527;51.986;5.842;2022-11-25T20:56:20;35.83;;;15.23;;
46765;SDS011;32527;51.986;5.842;2022-11-25T20:58:48;36.97;;;14.65;;
46765;SDS011;32527;51.986;5.842;2022-11-25T21:01:14;27.30;;;13.65;;
46765;SDS011;32527;51.986;5.842;2022-11-25T21:03:41;35.00;;;13.63;;
46765;SDS011;32527;51.986;5.842;2022-11-25T21:06:26;29.45;;;14.13;;
46765;SDS011;32527;51.986;5.842;2022-11-25T21:08:54;37.17;;;15.20;;
46765;SDS011;32527;51.986;5.842;2022-11-25T21:11:22;38.55;;;15.00;;
46765;SDS011;32527;51.986;5.842;2022-11-25T21:13:48;39.33;;;15.13;;
46765;SDS011;32527;51.986;5.842;2022-11-25T21:16:15;34.78;;;13.65;;
46765;SDS011;32527;51.986;5.842;2022-11-25T21:18:41;26.58;;;12.50;;
46765;SDS011;32527;51.986;5.842;2022-11-25T21:21:18;30.20;;;12.43;;
46765;SDS011;32527;51.986;5.842;2022-11-25T21:24:05;28.88;;;12.02;;
46765;SDS011;32527;51.986;5.842;2022-11-25T21:26:40;32.08;;;12.40;;
46765;SDS011;32527;51.986;5.842;2022-11-25T21:29:07;31.33;;;12.07;;
46765;SDS011;32527;51.986;5.842;2022-11-25T21:31:38;34.47;;;12.02;;
46765;SDS011;32527;51.986;5.842;2022-11-25T21:34:04;34.25;;;13.80;;
46765;SDS011;32527;51.986;5.842;2022-11-25T21:36:35;40.15;;;13.50;;
46765;SDS011;32527;51.986;5.842;2022-11-25T21:39:02;26.83;;;13.68;;
46765;SDS011;32527;51.986;5.842;2022-11-25T21:41:30;40.80;;;13.32;;
46765;SDS011;32527;51.986;5.842;2022-11-25T21:43:56;35.83;;;11.38;;
46765;SDS011;32527;51.986;5.842;2022-11-25T21:46:22;38.25;;;12.30;;
46765;SDS011;32527;51.986;5.842;2022-11-25T21:48:52;34.92;;;12.38;;
46765;SDS011;32527;51.986;5.842;2022-11-25T21:51:18;37.78;;;12.52;;
46765;SDS011;32527;51.986;5.842;2022-11-25T21:53:54;32.85;;;12.55;;
46765;SDS011;32527;51.986;5.842;2022-11-25T21:58:46;45.65;;;13.45;;
46765;SDS011;32527;51.986;5.842;2022-11-25T22:01:11;43.78;;;12.27;;
46765;SDS011;32527;51.986;5.842;2022-11-25T22:03:37;41.80;;;13.25;;
46765;SDS011;32527;51.986;5.842;2022-11-25T22:06:04;44.42;;;13.10;;
46765;SDS011;32527;51.986;5.842;2022-11-25T22:08:40;33.90;;;13.18;;
46765;SDS011;32527;51.986;5.842;2022-11-25T22:11:07;43.05;;;13.32;;
46765;SDS011;32527;51.986;5.842;2022-11-25T22:13:41;38.45;;;13.43;;
46765;SDS011;32527;51.986;5.842;2022-11-25T22:16:09;38.20;;;13.77;;
46765;SDS011;32527;51.986;5.842;2022-11-25T22:18:39;30.83;;;12.85;;
46765;SDS011;32527;51.986;5.842;2022-11-25T22:21:05;43.10;;;13.82;;
46765;SDS011;32527;51.986;5.842;2022-11-25T22:23:31;45.35;;;13.65;;
46765;SDS011;32527;51.986;5.842;2022-11-25T22:25:56;39.83;;;12.95;;
46765;SDS011;32527;51.986;5.842;2022-11-25T22:28:23;51.63;;;13.88;;
46765;SDS011;32527;51.986;5.842;2022-11-25T22:30:55;48.60;;;12.65;;
46765;SDS011;32527;51.986;5.842;2022-11-25T22:33:28;45.95;;;13.00;;
46765;SDS011;32527;51.986;5.842;2022-11-25T22:35:56;51.47;;;13.95;;
46765;SDS011;32527;51.986;5.842;2022-11-25T22:38:22;47.90;;;13.10;;
46765;SDS011;32527;51.986;5.842;2022-11-25T22:40:49;38.95;;;12.02;;
46765;SDS011;32527;51.986;5.842;2022-11-25T22:43:19;42.83;;;13.07;;
46765;SDS011;32527;51.986;5.842;2022-11-25T22:45:47;40.97;;;13.45;;
46765;SDS011;32527;51.986;5.842;2022-11-25T22:48:14;34.67;;;13.07;;
46765;SDS011;32527;51.986;5.842;2022-11-25T22:50:45;41.22;;;11.52;;
46765;SDS011;32527;51.986;5.842;2022-11-25T22:53:11;34.00;;;14.50;;
46765;SDS011;32527;51.986;5.842;2022-11-25T22:55:39;26.48;;;11.90;;
46765;SDS011;32527;51.986;5.842;2022-11-25T22:58:05;42.75;;;11.95;;
46765;SDS011;32527;51.986;5.842;2022-11-25T23:00:35;28.23;;;11.13;;
46765;SDS011;32527;51.986;5.842;2022-11-25T23:03:05;33.92;;;10.95;;
46765;SDS011;32527;51.986;5.842;2022-11-25T23:05:32;28.60;;;11.75;;
46765;SDS011;32527;51.986;5.842;2022-11-25T23:08:00;31.55;;;10.80;;
46765;SDS011;32527;51.986;5.842;2022-11-25T23:10:33;29.92;;;10.85;;
46765;SDS011;32527;51.986;5.842;2022-11-25T23:12:59;32.00;;;11.60;;
46765;SDS011;32527;51.986;5.842;2022-11-25T23:15:25;27.67;;;10.50;;
46765;SDS011;32527;51.986;5.842;2022-11-25T23:17:55;29.80;;;12.52;;
46765;SDS011;32527;51.986;5.842;2022-11-25T23:23:04;22.27;;;9.23;;
46765;SDS011;32527;51.986;5.842;2022-11-25T23:25:45;25.20;;;9.77;;
46765;SDS011;32527;51.986;5.842;2022-11-25T23:28:11;20.60;;;9.30;;